Time;durP1;ratioP1;P1;durP2;ratioP2;P2;SDS_P1;SDS_P2;PMS_P1;PMS_P2;Temp;Humidity;BMP_temperature;BMP_pressure;BME280_temperature;BME280_humidity;BME280_pressure;Samples;Min_cycle;Max_cycle;Signal;HPM_P1;HPM_P2
2022/06/23 00:04:58;;;;;;;6.32;4.00;;;12.80;99.90;;;;;;10436567;28;20029;-84
2022/06/23 00:10:13;;;;;;;6.43;4.85;;;12.80;99.90;;;;;;10426922;28;20084;-83
2022/06/23 00:15:49;;;;;;;9.80;4.45;;;12.60;99.90;;;;;;10420654;28;20084;-82
2022/06/23 00:21:18;;;;;;;6.75;4.35;;;12.40;99.90;;;;;;10384511;28;20514;-81
2022/06/23 00:26:22;;;;;;;5.38;4.40;;;12.30;99.90;;;;;;10427979;28;20120;-82
2022/06/23 00:31:40;;;;;;;9.38;5.35;;;12.30;99.90;;;;;;10412146;28;20104;-82
2022/06/23 00:36:48;;;;;;;8.48;4.95;;;12.30;99.90;;;;;;10427522;28;20122;-84
2022/06/23 00:41:49;;;;;;;5.95;4.72;;;12.20;99.90;;;;;;10430926;28;20368;-82
2022/06/23 00:46:53;;;;;;;7.13;5.45;;;12.20;99.90;;;;;;10416651;28;20067;-82
2022/06/23 00:52:09;;;;;;;8.73;6.50;;;12.10;99.90;;;;;;10420644;23;20056;-81
2022/06/23 00:57:27;;;;;;;9.40;6.37;;;12.10;99.90;;;;;;10388740;28;20121;-82
2022/06/23 01:02:37;;;;;;;9.70;6.22;;;12.20;99.90;;;;;;10401548;28;20030;-81
2022/06/23 01:07:43;;;;;;;8.32;5.68;;;12.10;99.90;;;;;;10387674;28;20167;-82
2022/06/23 01:13:01;;;;;;;7.68;5.40;;;12.20;99.90;;;;;;10391193;28;20014;-85
2022/06/23 01:18:20;;;;;;;8.05;5.10;;;12.30;99.90;;;;;;10374557;28;20736;-83
2022/06/23 01:23:49;;;;;;;8.18;5.03;;;12.30;99.90;;;;;;10368328;28;20030;-82
2022/06/23 01:29:02;;;;;;;7.07;4.72;;;12.40;99.90;;;;;;10384541;28;20049;-82
2022/06/23 01:34:12;;;;;;;7.85;5.35;;;12.40;99.90;;;;;;10390440;28;20064;-82
2022/06/23 01:39:52;;;;;;;8.68;5.07;;;12.40;99.90;;;;;;10371018;28;20041;-83
2022/06/23 01:44:56;;;;;;;8.75;5.18;;;12.30;99.90;;;;;;10282791;28;20121;-83
2022/06/23 01:50:28;;;;;;;9.05;5.47;;;12.20;99.90;;;;;;10383530;28;20056;-82
2022/06/23 01:55:50;;;;;;;9.60;5.20;;;12.10;99.90;;;;;;10382736;28;20025;-82
2022/06/23 02:00:55;;;;;;;5.95;4.53;;;12.00;99.90;;;;;;10375450;28;20049;-82
2022/06/23 02:06:19;;;;;;;8.07;5.10;;;11.90;99.90;;;;;;10379641;28;20117;-82
2022/06/23 02:11:37;;;;;;;9.93;5.65;;;12.00;99.90;;;;;;10428155;22;20049;-82
2022/06/23 02:16:52;;;;;;;8.43;4.53;;;12.00;99.90;;;;;;10419891;28;20087;-82
2022/06/23 02:22:22;;;;;;;8.68;4.63;;;12.00;99.90;;;;;;10417368;28;20024;-81
2022/06/23 02:27:32;;;;;;;6.10;4.75;;;11.90;99.90;;;;;;10435021;28;20516;-82
2022/06/23 02:32:47;;;;;;;6.20;4.72;;;11.90;99.90;;;;;;10425259;28;20049;-82
2022/06/23 02:37:57;;;;;;;6.28;3.70;;;11.80;99.90;;;;;;10402987;28;20123;-84
2022/06/23 02:43:47;;;;;;;8.00;4.95;;;11.80;99.90;;;;;;10444980;28;20649;-82
2022/06/23 02:49:06;;;;;;;6.75;4.13;;;11.90;99.90;;;;;;10423718;28;20061;-82
2022/06/23 02:54:15;;;;;;;6.70;4.90;;;11.90;99.90;;;;;;10428154;28;20024;-82
2022/06/23 02:59:55;;;;;;;6.88;4.93;;;11.90;99.90;;;;;;10444362;28;20039;-84
2022/06/23 03:05:20;;;;;;;6.72;5.38;;;11.90;99.90;;;;;;10376995;28;20068;-82
2022/06/23 03:10:34;;;;;;;6.70;4.43;;;12.00;99.90;;;;;;10423940;28;20128;-85
2022/06/23 03:15:44;;;;;;;6.95;5.10;;;12.00;99.90;;;;;;10418992;28;20025;-82
2022/06/23 03:20:49;;;;;;;9.45;5.45;;;12.00;99.90;;;;;;10426967;28;20551;-82
2022/06/23 03:26:13;;;;;;;7.20;5.00;;;12.00;99.90;;;;;;10437180;28;20032;-82
2022/06/23 03:31:43;;;;;;;7.20;5.15;;;12.00;99.90;;;;;;10411885;28;20130;-82
2022/06/23 03:36:52;;;;;;;9.27;5.38;;;11.90;99.90;;;;;;10442291;28;20124;-83
2022/06/23 03:42:17;;;;;;;11.70;6.57;;;11.90;99.90;;;;;;10425538;28;20013;-82
2022/06/23 03:47:44;;;;;;;9.97;6.57;;;11.90;99.90;;;;;;10436827;28;20127;-85
2022/06/23 03:52:59;;;;;;;;;;;11.80;99.90;;;;;;10420253;28;20029;-85
2022/06/23 03:58:20;;;;;;;10.32;5.47;;;11.80;99.90;;;;;;10442856;23;20040;-83
2022/06/23 04:03:36;;;;;;;7.05;5.20;;;11.90;99.90;;;;;;10402144;28;20030;-84
2022/06/23 04:08:45;;;;;;;6.53;4.55;;;12.10;99.90;;;;;;10402586;28;20017;-82
2022/06/23 04:13:46;;;;;;;7.40;5.63;;;12.30;99.90;;;;;;10390123;28;20065;-82
2022/06/23 04:18:51;;;;;;;8.10;4.60;;;12.50;99.90;;;;;;10404548;28;20112;-83
2022/06/23 04:24:05;;;;;;;5.53;4.45;;;12.70;99.90;;;;;;10395387;28;20029;-84
2022/06/23 04:29:16;;;;;;;4.47;3.92;;;12.90;99.90;;;;;;10407163;28;20596;-84
2022/06/23 04:34:27;;;;;;;7.88;3.90;;;13.10;99.90;;;;;;10399630;28;20018;-83
2022/06/23 04:39:42;;;;;;;4.75;4.30;;;13.30;99.90;;;;;;10401837;28;20029;-84
2022/06/23 04:44:49;;;;;;;5.78;4.07;;;13.60;99.90;;;;;;10420329;23;20071;-83
2022/06/23 04:50:12;;;;;;;6.43;4.10;;;13.90;99.90;;;;;;10423648;28;20028;-82
2022/06/23 04:55:21;;;;;;;4.70;3.78;;;14.20;99.90;;;;;;10424538;28;20029;-86
2022/06/23 05:00:25;;;;;;;7.55;4.50;;;14.50;99.90;;;;;;10405971;28;20033;-83
2022/06/23 05:05:35;;;;;;;7.57;4.38;;;14.70;99.90;;;;;;10433069;28;20717;-83
2022/06/23 05:11:02;;;;;;;12.05;5.85;;;15.00;99.90;;;;;;10424776;28;20075;-84
2022/06/23 05:16:33;;;;;;;12.98;6.68;;;15.40;99.90;;;;;;10439444;28;20040;-83
2022/06/23 05:21:42;;;;;;;10.32;5.40;;;15.70;99.90;;;;;;10430397;28;20021;-86
2022/06/23 05:26:55;;;;;;;9.55;4.88;;;16.00;99.90;;;;;;10423477;28;20369;-85
2022/06/23 05:32:06;;;;;;;7.35;3.83;;;16.30;99.90;;;;;;10464437;23;20403;-83
2022/06/23 05:37:17;;;;;;;7.82;3.63;;;16.70;99.90;;;;;;10470521;28;20396;-83
2022/06/23 05:42:26;;;;;;;6.35;3.40;;;17.10;99.90;;;;;;10495042;28;20021;-85
2022/06/23 05:47:30;;;;;;;9.77;3.90;;;17.40;99.90;;;;;;10488337;28;20017;-83
2022/06/23 05:52:43;;;;;;;22.75;5.03;;;17.60;99.90;;;;;;10504044;28;20024;-83
2022/06/23 05:57:55;;;;;;;6.82;2.45;;;17.80;99.90;;;;;;10488701;28;20017;-83
2022/06/23 06:03:03;;;;;;;4.70;2.20;;;18.00;99.30;;;;;;10496284;28;20417;-84
2022/06/23 06:08:28;;;;;;;3.28;2.08;;;18.30;94.50;;;;;;10486803;28;20412;-83
2022/06/23 06:13:33;;;;;;;3.55;2.30;;;18.50;92.50;;;;;;10502892;28;20015;-83
2022/06/23 06:18:38;;;;;;;7.82;2.42;;;18.80;91.70;;;;;;10522549;28;20032;-85
2022/06/23 06:24:00;;;;;;;7.45;2.58;;;19.10;91.90;;;;;;10518425;28;20024;-85
2022/06/23 06:29:18;;;;;;;3.72;2.20;;;19.30;86.10;;;;;;10520977;28;20062;-84
2022/06/23 06:34:36;;;;;;;6.78;2.50;;;19.50;86.70;;;;;;10510742;28;20055;-83
2022/06/23 06:39:40;;;;;;;11.10;2.78;;;19.60;86.20;;;;;;10520216;28;20042;-85
2022/06/23 06:44:44;;;;;;;7.97;2.90;;;19.70;87.50;;;;;;10528798;28;20028;-84
2022/06/23 06:49:45;;;;;;;15.65;3.28;;;19.90;85.40;;;;;;10518120;28;20020;-84
2022/06/23 06:54:55;;;;;;;4.53;2.35;;;20.30;84.90;;;;;;10520461;28;20056;-86
2022/06/23 07:00:05;;;;;;;3.80;2.30;;;21.70;82.10;;;;;;10510556;28;20032;-84
2022/06/23 07:05:17;;;;;;;4.55;2.05;;;23.90;75.80;;;;;;10523436;28;20017;-84
2022/06/23 07:10:30;;;;;;;5.40;2.60;;;25.70;71.10;;;;;;10518582;28;20020;-83
2022/06/23 07:16:06;;;;;;;9.27;4.20;;;26.70;66.70;;;;;;10513559;28;20052;-85
2022/06/23 07:21:18;;;;;;;8.32;3.30;;;27.30;59.10;;;;;;10501717;28;20037;-84
2022/06/23 07:26:40;;;;;;;6.05;2.83;;;27.40;60.50;;;;;;10528869;28;20695;-84
2022/06/23 07:31:54;;;;;;;5.18;2.50;;;27.50;60.80;;;;;;10521569;28;20080;-84
2022/06/23 07:36:59;;;;;;;5.97;3.13;;;27.60;56.60;;;;;;10519321;28;20024;-86
2022/06/23 07:42:06;;;;;;;6.53;3.20;;;27.40;59.60;;;;;;10523183;28;20089;-83
2022/06/23 07:47:06;;;;;;;10.13;3.00;;;27.40;58.80;;;;;;10516255;28;20093;-87
2022/06/23 07:52:11;;;;;;;5.53;2.92;;;27.50;59.70;;;;;;10534799;28;20077;-85
2022/06/23 07:57:12;;;;;;;8.43;3.45;;;26.90;59.70;;;;;;10514915;28;20637;-84
2022/06/23 08:02:45;;;;;;;7.00;3.97;;;26.40;59.70;;;;;;10511318;28;20048;-84
2022/06/23 08:07:48;;;;;;;9.07;3.55;;;26.00;60.50;;;;;;10507160;28;20017;-86
2022/06/23 08:12:58;;;;;;;9.48;3.65;;;26.20;63.60;;;;;;10501743;28;20052;-83
2022/06/23 08:18:26;;;;;;;7.72;3.10;;;26.10;64.10;;;;;;10515218;28;20044;-84
2022/06/23 08:23:33;;;;;;;5.53;3.20;;;26.30;60.60;;;;;;10516336;28;20111;-84
2022/06/23 08:28:34;;;;;;;6.65;3.40;;;26.00;65.20;;;;;;10526981;28;20035;-85
2022/06/23 08:33:35;;;;;;;5.88;3.38;;;25.20;61.90;;;;;;10500948;28;20093;-85
2022/06/23 08:38:46;;;;;;;3.75;2.53;;;25.30;61.70;;;;;;10513110;28;20032;-84
2022/06/23 08:44:04;;;;;;;6.75;2.60;;;26.00;61.90;;;;;;10512428;28;20032;-83
2022/06/23 08:49:23;;;;;;;5.13;2.60;;;25.70;64.00;;;;;;10526633;28;20036;-86
2022/06/23 08:54:48;;;;;;;3.15;2.38;;;26.60;61.60;;;;;;10517684;28;20022;-85
2022/06/23 09:00:15;;;;;;;3.08;2.10;;;26.60;61.20;;;;;;10516715;28;20024;-84
2022/06/23 09:06:05;;;;;;;2.78;2.03;;;26.10;62.00;;;;;;10509072;28;20019;-84
2022/06/23 09:11:43;;;;;;;2.15;1.95;;;25.50;60.30;;;;;;10476046;28;20035;-83
2022/06/23 09:17:06;;;;;;;3.28;2.05;;;25.20;65.10;;;;;;10506003;28;20253;-84
2022/06/23 09:22:31;;;;;;;4.10;2.35;;;25.50;65.70;;;;;;10500209;28;20078;-83
2022/06/23 09:27:50;;;;;;;5.30;2.25;;;26.20;63.60;;;;;;10519886;28;20111;-84
2022/06/23 09:32:56;;;;;;;3.28;2.17;;;26.70;60.60;;;;;;10507711;28;20083;-84
2022/06/23 09:38:16;;;;;;;3.00;1.98;;;26.80;58.70;;;;;;10508621;28;20020;-83
2022/06/23 09:43:54;;;;;;;5.18;2.03;;;26.60;60.20;;;;;;10504784;28;20477;-83
2022/06/23 09:49:22;;;;;;;4.78;2.30;;;25.20;61.20;;;;;;10509466;28;20079;-83
2022/06/23 09:54:58;;;;;;;3.95;2.40;;;25.20;64.30;;;;;;10519967;28;20032;-83
2022/06/23 10:00:15;;;;;;;2.53;2.22;;;25.90;65.40;;;;;;10509771;28;20038;-83
2022/06/23 10:05:26;;;;;;;4.22;2.22;;;26.70;62.50;;;;;;10516322;28;20460;-86
2022/06/23 10:11:00;;;;;;;5.05;2.20;;;26.70;59.40;;;;;;10500189;28;20016;-86
2022/06/23 10:16:26;;;;;;;3.97;2.17;;;27.10;59.00;;;;;;10491895;28;20039;-82
2022/06/23 10:22:08;;;;;;;2.30;2.10;;;28.00;62.30;;;;;;10510221;28;20121;-84
2022/06/23 10:27:32;;;;;;;3.63;2.47;;;28.30;59.70;;;;;;10492949;28;20039;-84
2022/06/23 10:32:57;;;;;;;4.80;2.50;;;28.00;59.00;;;;;;10497435;28;20549;-83
2022/06/23 10:38:29;;;;;;;3.25;2.45;;;26.80;57.40;;;;;;10487916;28;20037;-82
2022/06/23 10:43:51;;;;;;;3.58;2.60;;;25.50;60.70;;;;;;10503977;28;20024;-84
2022/06/23 10:49:16;;;;;;;4.63;2.53;;;25.20;60.60;;;;;;10504185;28;20479;-83
2022/06/23 10:54:51;;;;;;;3.60;2.30;;;25.80;60.70;;;;;;10505334;28;20029;-86
2022/06/23 11:00:00;;;;;;;4.03;2.88;;;27.00;61.50;;;;;;10503167;28;20056;-83
2022/06/23 11:05:01;;;;;;;3.13;2.30;;;28.00;60.60;;;;;;10513979;28;20047;-84
2022/06/23 11:10:55;;;;;;;2.67;2.00;;;28.30;61.40;;;;;;10510927;28;20039;-84
2022/06/23 11:16:15;;;;;;;3.40;2.28;;;27.60;57.80;;;;;;10504841;28;20744;-84
2022/06/23 11:21:38;;;;;;;3.05;2.50;;;27.30;60.60;;;;;;10524714;28;20723;-84
2022/06/23 11:27:03;;;;;;;2.72;2.03;;;27.40;59.70;;;;;;10520677;28;20016;-86
2022/06/23 11:32:22;;;;;;;5.63;2.33;;;27.80;56.20;;;;;;10521273;28;20051;-85
2022/06/23 11:37:55;;;;;;;3.80;2.30;;;27.70;57.60;;;;;;10509983;28;20126;-83
2022/06/23 11:43:37;;;;;;;4.35;2.03;;;27.50;60.90;;;;;;10486324;28;20084;-83
2022/06/23 11:48:54;;;;;;;2.90;1.80;;;27.30;57.30;;;;;;10486854;28;20047;-87
2022/06/23 11:54:07;;;;;;;8.90;2.20;;;27.40;58.80;;;;;;10510273;28;20023;-83
2022/06/23 11:59:20;;;;;;;2.50;1.98;;;28.10;57.40;;;;;;10503939;28;20041;-84
2022/06/23 12:04:51;;;;;;;4.03;2.10;;;28.20;61.20;;;;;;10510861;28;20020;-85
2022/06/23 12:10:07;;;;;;;3.92;2.00;;;27.90;60.50;;;;;;10509059;28;20033;-84
2022/06/23 12:15:11;;;;;;;4.60;2.10;;;27.50;55.40;;;;;;10514914;28;20020;-86
2022/06/23 12:20:23;;;;;;;3.33;2.13;;;27.40;56.50;;;;;;10501214;28;20349;-87
2022/06/23 12:25:47;;;;;;;3.63;1.90;;;27.20;55.50;;;;;;10524542;28;20044;-84
2022/06/23 12:31:32;;;;;;;2.25;1.80;;;26.90;56.00;;;;;;10510199;28;20024;-83
2022/06/23 12:36:39;;;;;;;;;;;26.80;58.20;;;;;;10508252;28;20036;-86
2022/06/23 12:41:51;;;;;;;4.10;2.20;;;27.30;59.70;;;;;;10509911;28;19924;-86
2022/06/23 12:46:53;;;;;;;1.95;1.73;;;27.80;56.40;;;;;;10504347;28;20021;-82
2022/06/23 12:52:03;;;;;;;2.65;1.92;;;27.50;56.60;;;;;;10504925;28;20033;-85
2022/06/23 12:57:27;;;;;;;3.35;1.85;;;27.60;56.00;;;;;;10512032;28;20070;-83
2022/06/23 13:02:43;;;;;;;4.25;2.00;;;27.50;55.60;;;;;;10509729;28;20028;-84
2022/06/23 13:07:52;;;;;;;3.20;1.63;;;27.30;58.50;;;;;;10515254;28;20008;-84
2022/06/23 13:13:06;;;;;;;2.60;1.73;;;27.40;56.30;;;;;;10512475;28;20102;-84
2022/06/23 13:18:29;;;;;;;3.05;2.00;;;27.60;58.50;;;;;;10500638;28;20041;-84
2022/06/23 13:23:42;;;;;;;4.57;1.90;;;28.10;56.90;;;;;;10510157;28;20413;-87
2022/06/23 13:28:45;;;;;;;2.00;1.70;;;28.10;53.90;;;;;;10507310;28;20014;-86
2022/06/23 13:34:06;;;;;;;4.60;2.00;;;28.00;57.50;;;;;;10507802;28;20044;-84
2022/06/23 13:39:13;;;;;;;4.50;1.80;;;28.30;58.50;;;;;;10497855;28;20040;-83
2022/06/23 13:44:44;;;;;;;7.65;1.60;;;28.30;55.70;;;;;;10500048;28;20535;-84
2022/06/23 13:50:37;;;;;;;3.80;1.88;;;28.10;55.10;;;;;;10499207;28;20074;-84
2022/06/23 13:55:48;;;;;;;3.63;2.10;;;27.50;55.70;;;;;;10498670;28;20372;-84
2022/06/23 14:00:52;;;;;;;3.00;1.52;;;27.40;55.60;;;;;;10501054;28;20751;-84
2022/06/23 14:06:01;;;;;;;2.72;1.80;;;27.50;58.20;;;;;;10506450;28;20537;-84
2022/06/23 14:11:33;;;;;;;4.75;1.92;;;27.70;56.50;;;;;;10505135;28;20028;-85
2022/06/23 14:17:12;;;;;;;5.43;1.88;;;27.60;57.60;;;;;;10503239;28;20481;-84
2022/06/23 14:22:23;;;;;;;2.10;1.80;;;27.40;56.60;;;;;;10502897;28;20123;-85
2022/06/23 14:27:47;;;;;;;2.25;1.70;;;26.70;55.30;;;;;;10507147;28;20042;-85
2022/06/23 14:33:11;;;;;;;3.33;2.35;;;26.30;55.50;;;;;;10472385;28;20119;-86
2022/06/23 14:38:14;;;;;;;2.05;1.77;;;26.00;57.00;;;;;;10508489;28;20650;-89
2022/06/23 14:43:30;;;;;;;2.00;1.80;;;25.80;58.80;;;;;;10494748;28;20121;-84
2022/06/23 14:48:50;;;;;;;3.13;1.85;;;25.80;59.10;;;;;;10501842;28;20031;-84
2022/06/23 14:54:15;;;;;;;2.45;2.15;;;25.70;59.50;;;;;;10508882;28;20120;-88
2022/06/23 14:59:19;;;;;;;;;;;25.70;60.30;;;;;;10499659;28;20026;-84
2022/06/23 15:04:41;;;;;;;3.50;2.30;;;25.80;61.40;;;;;;10494068;28;19978;-84
2022/06/23 15:09:56;;;;;;;2.13;1.92;;;25.80;60.10;;;;;;10514554;28;20013;-85
2022/06/23 15:15:19;;;;;;;3.05;2.22;;;25.70;60.00;;;;;;10523112;28;20039;-85
2022/06/23 15:20:29;;;;;;;2.30;2.10;;;25.60;59.90;;;;;;10530945;28;20031;-83
2022/06/23 15:25:48;;;;;;;3.15;2.55;;;25.40;60.50;;;;;;10525072;28;20161;-85
2022/06/23 15:31:03;;;;;;;4.03;2.40;;;25.40;60.00;;;;;;10512340;28;20439;-83
2022/06/23 15:36:29;;;;;;;3.05;2.40;;;25.30;60.40;;;;;;10512899;28;20020;-85
2022/06/23 15:41:50;;;;;;;3.63;2.45;;;25.30;58.60;;;;;;10503093;28;20103;-84
2022/06/23 15:47:06;;;;;;;3.05;2.08;;;25.10;61.90;;;;;;10495150;28;20040;-86
2022/06/23 15:52:58;;;;;;;3.88;2.40;;;25.10;60.70;;;;;;10515387;28;20020;-83
2022/06/23 15:58:20;;;;;;;2.75;2.35;;;25.00;59.70;;;;;;10461459;28;20048;-87
2022/06/23 16:03:43;;;;;;;4.30;2.47;;;25.00;61.10;;;;;;10500418;28;20024;-85
2022/06/23 16:08:59;;;;;;;6.13;2.40;;;24.90;60.10;;;;;;10507504;28;20012;-85
2022/06/23 16:14:07;;;;;;;3.17;2.53;;;24.90;61.70;;;;;;10533603;28;20042;-86
2022/06/23 16:19:30;;;;;;;2.80;2.50;;;24.80;61.10;;;;;;10511851;28;20477;-85
2022/06/23 16:24:46;;;;;;;3.78;2.70;;;24.80;59.80;;;;;;10504616;28;20043;-85
2022/06/23 16:29:51;;;;;;;2.33;2.10;;;24.70;60.90;;;;;;10521140;28;20012;-86
2022/06/23 16:34:56;;;;;;;;;;;24.60;62.80;;;;;;10523173;28;20144;-89
2022/06/23 16:40:32;;;;;;;3.97;2.40;;;24.60;61.70;;;;;;10510633;28;19942;-85
2022/06/23 16:45:46;;;;;;;4.05;2.85;;;24.50;63.00;;;;;;10516864;28;20463;-85
2022/06/23 16:51:02;;;;;;;2.42;2.22;;;24.40;62.20;;;;;;10528052;28;20108;-84
2022/06/23 16:56:16;;;;;;;2.95;2.10;;;24.40;64.00;;;;;;10513455;28;20059;-86
2022/06/23 17:01:55;;;;;;;2.50;2.05;;;24.30;64.50;;;;;;10500358;28;20131;-86
2022/06/23 17:07:03;;;;;;;4.13;2.70;;;24.20;64.00;;;;;;10525251;28;20691;-85
2022/06/23 17:12:11;;;;;;;3.08;2.30;;;24.10;64.30;;;;;;10504577;28;20024;-85
2022/06/23 17:17:18;;;;;;;4.28;2.22;;;24.00;65.50;;;;;;10501763;28;20039;-85
2022/06/23 17:22:33;;;;;;;3.13;2.20;;;23.90;65.40;;;;;;10521759;28;20032;-86
2022/06/23 17:27:52;;;;;;;2.58;2.13;;;23.80;65.70;;;;;;10513470;28;20034;-86
2022/06/23 17:33:03;;;;;;;3.28;2.30;;;23.70;66.20;;;;;;10500155;28;20051;-85
2022/06/23 17:43:57;;;;;;;2.17;1.98;;;23.40;69.20;;;;;;10508882;28;20412;-84
2022/06/23 17:49:08;;;;;;;3.23;2.17;;;23.10;69.80;;;;;;10507720;28;20028;-85
2022/06/23 17:54:17;;;;;;;4.78;2.00;;;22.80;69.80;;;;;;10505262;28;20031;-85
2022/06/23 17:59:27;;;;;;;3.40;2.22;;;22.70;70.60;;;;;;10503144;28;20036;-85
2022/06/23 18:04:46;;;;;;;2.42;1.90;;;22.40;72.40;;;;;;10516596;28;20033;-84
2022/06/23 18:09:51;;;;;;;6.63;2.20;;;22.10;74.00;;;;;;10500133;28;20274;-84
2022/06/23 18:15:10;;;;;;;3.90;2.33;;;21.80;74.10;;;;;;10515681;28;20033;-85
2022/06/23 18:20:35;;;;;;;3.40;2.33;;;21.50;74.50;;;;;;10504667;28;20039;-86
2022/06/23 18:25:57;;;;;;;2.57;2.17;;;21.20;76.00;;;;;;10512038;28;20050;-86
2022/06/23 18:31:28;;;;;;;2.22;1.92;;;20.90;77.20;;;;;;10499460;28;20839;-83
2022/06/23 18:36:40;;;;;;;6.45;2.38;;;20.50;78.00;;;;;;10501010;28;20166;-86
2022/06/23 18:57:22;;;;;;;3.88;2.67;;;20.00;79.50;;;;;;10529256;27;20400;-82
2022/06/23 19:02:45;;;;;;;6.35;3.25;;;19.80;81.20;;;;;;10511908;28;20701;-81
2022/06/23 19:07:48;;;;;;;3.95;2.97;;;19.30;83.00;;;;;;10518520;28;20026;-82
2022/06/23 19:12:57;;;;;;;4.88;3.15;;;18.90;84.70;;;;;;10514880;28;20024;-81
2022/06/23 19:18:29;;;;;;;6.88;3.70;;;18.70;86.50;;;;;;10506734;28;20105;-81
2022/06/23 19:23:43;;;;;;;6.68;4.18;;;18.40;88.10;;;;;;10494919;28;20505;-81
2022/06/23 19:29:12;;;;;;;9.43;4.93;;;18.20;89.10;;;;;;10501040;28;20040;-82
2022/06/23 19:34:27;;;;;;;6.85;4.90;;;18.10;90.40;;;;;;10517721;28;20070;-81
2022/06/23 19:39:55;;;;;;;12.07;6.28;;;17.90;90.30;;;;;;10514893;28;20706;-81
2022/06/23 19:44:58;;;;;;;15.77;6.95;;;17.80;91.60;;;;;;10504884;28;20032;-82
2022/06/23 19:50:20;;;;;;;8.88;5.38;;;17.80;91.90;;;;;;10513672;28;20499;-84
2022/06/23 19:55:24;;;;;;;8.35;5.22;;;17.60;92.30;;;;;;10500574;28;20056;-81
2022/06/23 20:00:49;;;;;;;10.75;6.78;;;17.50;92.70;;;;;;10478593;28;20040;-81
2022/06/23 20:06:05;;;;;;;14.43;7.80;;;17.50;94.00;;;;;;10481717;28;20039;-82
2022/06/23 20:11:31;;;;;;;10.80;6.75;;;17.40;94.90;;;;;;10483197;28;20443;-85
2022/06/23 20:16:46;;;;;;;15.07;8.05;;;17.30;95.10;;;;;;10489837;28;20028;-84
2022/06/23 20:21:53;;;;;;;17.95;8.40;;;17.20;95.50;;;;;;10485862;28;20032;-84
2022/06/23 20:27:06;;;;;;;16.27;9.57;;;17.20;96.30;;;;;;10484379;28;20037;-85
2022/06/23 20:32:39;;;;;;;14.60;7.97;;;17.20;96.00;;;;;;10488539;28;20119;-83
2022/06/23 20:37:43;;;;;;;12.80;6.13;;;17.20;96.10;;;;;;10469781;28;20139;-84
2022/06/23 20:42:55;;;;;;;9.68;6.10;;;17.30;95.80;;;;;;10477444;28;20044;-84
2022/06/23 20:48:05;;;;;;;10.52;6.30;;;17.20;95.80;;;;;;10484645;28;20031;-83
2022/06/23 20:53:12;;;;;;;8.63;5.50;;;17.20;96.20;;;;;;10482043;28;20055;-83
2022/06/23 20:58:44;;;;;;;9.52;5.93;;;17.00;97.20;;;;;;10484299;28;20036;-82
2022/06/23 21:04:15;;;;;;;11.65;5.38;;;16.80;99.10;;;;;;10497862;28;20075;-84
2022/06/23 21:09:42;;;;;;;7.68;4.88;;;16.70;99.90;;;;;;10477655;28;20147;-83
2022/06/23 21:15:00;;;;;;;9.80;5.43;;;16.60;99.90;;;;;;10481089;28;20037;-83
2022/06/23 21:20:24;;;;;;;9.15;6.20;;;16.50;99.90;;;;;;10483325;28;20039;-84
2022/06/23 21:25:37;;;;;;;7.90;5.15;;;16.40;99.90;;;;;;10482969;28;20064;-85
2022/06/23 21:31:02;;;;;;;7.57;5.45;;;16.40;99.90;;;;;;10484397;28;20036;-83
2022/06/23 21:36:10;;;;;;;7.05;5.38;;;16.40;99.90;;;;;;10479217;28;20542;-84
2022/06/23 21:41:40;;;;;;;9.82;5.20;;;16.30;99.90;;;;;;10481002;28;20025;-84
2022/06/23 21:46:51;;;;;;;8.15;5.10;;;16.30;99.90;;;;;;10479393;28;20692;-83
2022/06/23 21:52:20;;;;;;;8.38;5.30;;;16.30;99.90;;;;;;10468698;28;20032;-83
2022/06/23 21:57:37;;;;;;;8.77;4.80;;;16.20;99.90;;;;;;10478127;28;20040;-83
2022/06/23 22:02:49;;;;;;;6.40;4.78;;;16.20;99.90;;;;;;10472675;28;20127;-82
2022/06/23 22:07:58;;;;;;;7.47;5.10;;;16.20;99.90;;;;;;10439497;28;20490;-84
2022/06/23 22:13:02;;;;;;;8.60;4.68;;;16.20;99.90;;;;;;10440260;28;20707;-85
2022/06/23 22:29:47;;;;;;;6.78;4.43;;;16.00;99.90;;;;;;10481813;28;20044;-83
2022/06/23 22:35:00;;;;;;;9.20;4.70;;;15.90;99.90;;;;;;10471948;28;20032;-83
2022/06/23 22:40:01;;;;;;;7.63;5.50;;;15.70;99.90;;;;;;10483685;28;20112;-84
2022/06/23 22:45:07;;;;;;;7.55;4.90;;;15.50;99.90;;;;;;10474598;28;20046;-82
2022/06/23 22:50:08;;;;;;;6.80;4.18;;;15.20;99.90;;;;;;10478865;28;20047;-84
2022/06/23 22:55:14;;;;;;;7.32;4.78;;;15.10;99.90;;;;;;10476284;28;20064;-85
2022/06/23 23:00:17;;;;;;;7.47;5.47;;;15.10;99.90;;;;;;10475118;28;20099;-85
2022/06/23 23:05:28;;;;;;;9.20;5.43;;;15.10;99.90;;;;;;10477374;28;20116;-84
2022/06/23 23:10:38;;;;;;;8.55;5.20;;;15.10;99.90;;;;;;10482134;28;20016;-84
2022/06/23 23:15:44;;;;;;;8.32;5.05;;;15.10;99.90;;;;;;10478711;28;20139;-86
2022/06/23 23:20:48;;;;;;;6.75;5.10;;;15.00;99.90;;;;;;10475333;28;20719;-83
2022/06/23 23:25:49;;;;;;;8.27;5.10;;;15.00;99.90;;;;;;10474806;28;20040;-85
2022/06/23 23:30:57;;;;;;;7.68;5.32;;;14.90;99.90;;;;;;10474760;28;20039;-84
2022/06/23 23:35:57;;;;;;;7.13;4.50;;;14.90;99.90;;;;;;10488751;28;20028;-84
2022/06/23 23:40:58;;;;;;;8.68;4.80;;;14.90;99.90;;;;;;10488335;28;20029;-84
2022/06/23 23:46:00;;;;;;;6.78;4.60;;;15.00;99.90;;;;;;10480509;28;20504;-86
2022/06/23 23:51:01;;;;;;;9.07;5.50;;;15.00;99.90;;;;;;10478930;28;20107;-84
2022/06/23 23:56:02;;;;;;;7.95;5.05;;;14.90;99.90;;;;;;10483444;28;20805;-85
